Daleville, Virginia
Current Conditions -  °F | °C
As of 5:54 PM on Saturday 27 Dec 2014 (Local Time) from KROA Reporting Station
Scattered Clouds Scattered Clouds  
Wind Chill: 57°   Ceiling: Unl
Heat Index: 57°   Visibility: 10mi
Dew Point: 26°   Wind: 3mph
Humidity: 30%   Direction: 90°E
Pressure: 30.2"   Gusts: NA
Location:  37.42°N, 79.92°W
Report Text: KROA 272254Z 09003KT 10SM FEW120 SCT250 14/M03 A3020 RMK AO2 SLP228 T01391033
Loading
Personal Weather Stations






























Interactive Weather Map New forecast layout! Learn more

10-Day Weather Forecast

Advertisements
Track Severe Weather on mobile